Stations météo

réclame
Mon MeteoGroup
Mont Aigoual, France (7560): Température de l'air & dewpoint: 13.06.2018 20:00:00 - 19.06.2018 20:00:00 (CEST)Mont Aigoual, France (7560): Vitesse du vent & gusts: 13.06.2018 20:00:00 - 19.06.2018 20:00:00 (CEST)Mont Aigoual, France (7560): Direction du vent: 13.06.2018 20:00:00 - 19.06.2018 20:00:00 (CEST)Mont Aigoual, France (7560): visibility: 13.06.2018 20:00:00 - 19.06.2018 20:00:00 (CEST)Mont Aigoual, France (7560): Quantités de précipitations: 13.06.2018 20:00:00 - 19.06.2018 20:00:00 (CEST)
Date & Time tt [°C] td [°C] ff [km/h] ff [knt] fx [km/h] fx [knt] dd vv [km] rr [mm]
19.06.2018 20:00:00 - - - - - - - - -
19.06.2018 19:00:00 18,9 11,9 9 5 19 11 S 20 0,0
19.06.2018 18:00:00 19,7 11,5 10 6 22 12 S 20 0,0
19.06.2018 17:00:00 19,8 11,8 13 7 27 15 S 20 0,0
19.06.2018 16:00:00 19,2 11,0 14 7 32 17 S 20 0,0
19.06.2018 15:00:00 18,2 11,0 16 8 29 16 S 20 0,0
19.06.2018 14:00:00 18,4 11,7 13 7 31 17 S 20 0,0
19.06.2018 13:00:00 17,6 10,7 11 6 29 15 SSE 20 0,0
19.06.2018 12:00:00 16,5 9,9 14 8 32 17 ESE 20 0,0
19.06.2018 11:00:00 15,4 9,1 16 9 42 23 E 20 0,0
19.06.2018 10:00:00 14,1 8,7 26 14 43 23 NE 20 0,0
19.06.2018 09:00:00 13,2 8,9 29 16 56 30 NNE 20 0,0
19.06.2018 08:00:00 11,9 7,6 41 22 58 31 N 20 0,0
19.06.2018 07:00:00 11,0 7,3 43 23 56 30 N 20 0,0
19.06.2018 06:00:00 10,4 6,7 47 26 59 32 N 20 0,0
19.06.2018 05:00:00 9,4 7,3 48 26 64 35 N 20 0,0
19.06.2018 04:00:00 8,5 7,6 45 25 56 30 N 20 0,0
19.06.2018 03:00:00 9,0 7,4 29 15 41 22 N 20 0,0
19.06.2018 02:00:00 9,0 7,3 29 16 43 23 N 20 0,0
19.06.2018 01:00:00 8,5 8,2 34 18 64 34 NW 16 0,0
19.06.2018 00:00:00 9,3 8,1 49 26 86 47 N 20 0,0
18.06.2018 23:00:00 9,9 8,2 74 40 98 53 N 20 0,0
18.06.2018 22:00:00 10,4 8,5 61 33 94 51 N 20 0,0
18.06.2018 21:00:00 10,9 8,5 63 34 90 49 N 20 0,0
18.06.2018 20:00:00 12,5 9,3 53 28 74 40 N 20 0,0
18.06.2018 19:00:00 13,0 9,6 52 28 81 44 NNW 20 0,0
18.06.2018 18:00:00 13,5 9,9 50 27 75 40 N 19 0,0
18.06.2018 17:00:00 14,2 10,2 43 23 75 41 N 20 0,0
18.06.2018 16:00:00 14,5 10,7 47 25 86 47 N 20 0,0
18.06.2018 15:00:00 14,0 10,6 40 21 71 39 N 20 0,0
18.06.2018 14:00:00 13,4 10,4 46 25 73 40 N 20 0,0
18.06.2018 13:00:00 12,2 9,4 51 28 89 48 NNW 20 0,0
18.06.2018 12:00:00 11,7 8,7 63 34 104 56 N 20 0,0
18.06.2018 11:00:00 10,6 8,4 75 40 98 53 NNW 20 0,0
18.06.2018 10:00:00 9,5 7,8 63 34 102 55 NNW 20 0,0
18.06.2018 09:00:00 8,8 7,2 62 34 99 54 N 20 0,0
18.06.2018 08:00:00 7,0 6,6 71 38 107 58 N 13 0,0
18.06.2018 07:00:00 6,2 6,2 82 45 108 58 NNW 0,8 0,0
18.06.2018 06:00:00 6,0 5,9 85 46 114 62 NNW 6 0,0
18.06.2018 05:00:00 6,3 6,2 83 45 126 68 N 12 0,0
18.06.2018 04:00:00 6,7 6,7 83 45 114 61 N 0,2 0,0
18.06.2018 03:00:00 7,0 7,0 88 48 111 60 N 0,1 0,0
18.06.2018 02:00:00 7,2 7,2 76 41 114 62 N 0,2 0,0
18.06.2018 01:00:00 7,0 6,9 82 44 116 63 N 0,4 0,0
18.06.2018 00:00:00 7,2 6,8 77 42 102 55 N 20 0,0
17.06.2018 23:00:00 7,3 6,4 80 43 106 57 NNW 20 0,0
17.06.2018 22:00:00 7,8 6,4 69 38 96 52 NNW 20 0,0
17.06.2018 21:00:00 8,5 7,1 67 36 93 50 NNW 20 0,0
17.06.2018 20:00:00 9,4 7,5 55 30 84 46 NNW 20 0,0
17.06.2018 19:00:00 10,4 7,8 56 30 82 44 NNW 20 0,0
17.06.2018 18:00:00 11,0 9,1 48 26 79 43 NNW 20 0,0
17.06.2018 17:00:00 10,4 9,0 56 30 77 42 NNW 20 0,0
17.06.2018 16:00:00 11,9 9,8 43 23 65 35 NNW 20 0,0
17.06.2018 15:00:00 11,7 9,9 40 22 63 34 NNW 20 0,0
17.06.2018 14:00:00 11,3 8,9 40 21 73 39 N 20 0,0
17.06.2018 13:00:00 10,7 9,3 48 26 73 39 N 19 0,0
17.06.2018 12:00:00 10,5 9,1 44 24 83 45 N 20 0,0
17.06.2018 11:00:00 9,2 8,7 54 29 81 44 N 19 0,0
17.06.2018 10:00:00 7,8 7,8 60 33 85 46 NNW 0,1 0,0
17.06.2018 09:00:00 7,6 7,6 57 31 85 46 NNW 0,1 0,0
17.06.2018 08:00:00 7,6 7,6 62 33 87 47 NNW 0,1 0,0
17.06.2018 07:00:00 7,4 7,4 56 30 77 42 NNW 0,1 0,0
17.06.2018 06:00:00 7,5 7,5 44 24 56 30 NNW - 0,2
17.06.2018 05:00:00 7,7 7,7 37 20 49 26 NNW 0,1 0,0
17.06.2018 04:00:00 7,6 7,6 38 20 62 34 NNW - 0,0
17.06.2018 03:00:00 7,6 7,6 38 21 63 34 NNW - 0,0
17.06.2018 02:00:00 7,6 7,6 53 28 71 39 NW 0,1 0,0
17.06.2018 01:00:00 8,1 8,1 49 26 68 37 NW 0,1 0,0
17.06.2018 00:00:00 8,5 8,5 53 29 70 38 NW 0,1 0,0
16.06.2018 23:00:00 9,2 9,2 48 26 59 32 NW 0,1 0,0
16.06.2018 22:00:00 9,6 9,6 45 25 60 32 NW 0,1 0,0
16.06.2018 21:00:00 10,3 10,3 41 22 56 30 NW 0,1 0,0
16.06.2018 20:00:00 11,4 10,9 38 21 53 29 NNW 15 0,0
16.06.2018 19:00:00 12,0 10,7 42 23 56 30 NW 20 0,0
16.06.2018 18:00:00 13,1 11,0 31 17 47 25 NNW 20 0,0
16.06.2018 17:00:00 14,4 10,8 30 16 43 23 NNW 20 0,0
16.06.2018 16:00:00 14,2 9,4 28 15 47 25 N 20 0,0
16.06.2018 15:00:00 15,0 9,8 24 13 46 25 N 19 0,0
16.06.2018 14:00:00 13,9 9,9 27 14 48 26 N 19 0,0
16.06.2018 13:00:00 13,1 9,3 24 13 43 23 NNW 20 0,0
16.06.2018 12:00:00 13,3 11,2 26 14 44 24 NW 20 0,0
16.06.2018 11:00:00 12,1 10,5 30 16 46 25 NW 20 0,0
16.06.2018 10:00:00 10,9 9,7 37 20 49 26 NNW 19 0,0
16.06.2018 09:00:00 9,4 9,4 36 19 54 29 NNW 10 0,0
16.06.2018 08:00:00 8,6 8,6 43 23 59 32 N 2,8 0,0
16.06.2018 07:00:00 8,4 8,4 42 23 56 30 NNW 0,1 0,0
16.06.2018 06:00:00 8,2 8,2 41 22 63 34 N 1,5 0,0
16.06.2018 05:00:00 8,2 8,2 46 25 61 33 NNW 0,4 0,0
16.06.2018 04:00:00 8,2 8,2 40 21 55 30 NNW 0,1 0,0
16.06.2018 03:00:00 8,1 8,1 39 21 55 30 N 0,2 0,0
16.06.2018 02:00:00 8,0 8,0 35 19 45 24 NW 0,1 0,0
16.06.2018 01:00:00 8,0 8,0 29 16 42 23 NNW 0,1 0,0
16.06.2018 00:00:00 8,2 8,1 33 18 59 32 N 3,3 0,0
15.06.2018 23:00:00 8,6 8,2 39 21 63 34 N 10 0,0
15.06.2018 22:00:00 9,1 8,6 48 26 64 34 N 8 0,0
15.06.2018 21:00:00 9,9 8,7 48 26 66 36 N 20 0,0
15.06.2018 20:00:00 10,8 9,4 37 20 53 29 NNW 20 0,0
15.06.2018 19:00:00 11,1 9,2 40 21 54 29 NNW 20 0,0
15.06.2018 18:00:00 12,0 9,2 40 22 49 27 NNW 20 0,0
15.06.2018 17:00:00 13,8 8,0 23 12 40 22 N 19 0,0
15.06.2018 16:00:00 13,7 8,3 23 13 48 26 N 20 0,0
15.06.2018 15:00:00 13,0 9,3 29 15 49 26 N 20 0,0
15.06.2018 14:00:00 12,8 8,1 29 16 50 27 N 20 0,0
15.06.2018 13:00:00 12,6 9,1 32 17 51 28 N 20 0,0
15.06.2018 12:00:00 11,2 7,7 39 21 56 30 NNW 20 0,0
15.06.2018 11:00:00 10,2 8,3 45 25 63 34 NNW 20 0,0
15.06.2018 10:00:00 9,4 7,7 41 22 61 33 NNW 20 0,0
15.06.2018 09:00:00 8,4 7,0 47 25 75 40 N 20 0,0
15.06.2018 08:00:00 7,9 6,5 53 28 88 48 N 20 0,0
15.06.2018 07:00:00 6,8 6,1 60 33 83 45 NNW 14 0,0
15.06.2018 06:00:00 6,9 5,7 60 33 96 52 NNW 20 0,0
15.06.2018 05:00:00 7,2 5,7 68 37 97 52 N 20 0,0
15.06.2018 04:00:00 6,9 5,8 68 37 100 54 NNW 18 0,0
15.06.2018 03:00:00 7,3 4,6 73 39 104 56 N 20 0,0
15.06.2018 02:00:00 7,3 5,3 75 40 102 55 N 20 0,0
15.06.2018 01:00:00 7,6 4,9 73 39 110 60 N 20 0,0
15.06.2018 00:00:00 7,6 5,7 72 39 113 61 N 20 0,0
14.06.2018 23:00:00 8,1 5,6 86 46 115 62 N 20 0,0
14.06.2018 22:00:00 8,7 5,6 83 45 113 61 N 20 0,0
14.06.2018 21:00:00 9,7 5,3 76 41 101 55 N 20 0,0
14.06.2018 20:00:00 11,3 5,4 69 38 106 57 N 20 0,0
14.06.2018 19:00:00 11,8 4,5 67 36 95 51 N 20 0,0
14.06.2018 18:00:00 12,3 4,0 66 36 91 49 N 20 0,0
14.06.2018 17:00:00 12,6 3,8 60 33 87 47 NNW 20 0,0
14.06.2018 16:00:00 12,6 4,5 54 29 82 44 NNW 20 0,0
14.06.2018 15:00:00 11,3 5,2 57 31 95 51 N 20 0,0
14.06.2018 14:00:00 11,1 5,4 52 28 94 51 NNW 20 0,0
14.06.2018 13:00:00 10,3 4,9 68 37 91 49 N 20 0,0
14.06.2018 12:00:00 9,5 3,2 72 39 95 51 N 20 0,0
14.06.2018 11:00:00 8,0 3,6 66 35 97 52 N 20 0,0
14.06.2018 10:00:00 7,6 4,0 62 34 94 51 N 20 0,0
14.06.2018 09:00:00 6,5 3,3 64 34 106 57 N 20 0,0
14.06.2018 08:00:00 4,8 3,5 77 42 106 57 N 20 0,0
14.06.2018 07:00:00 4,0 3,4 74 40 111 60 N 16 0,0
14.06.2018 06:00:00 3,8 3,5 71 38 109 59 N 9 0,0
14.06.2018 05:00:00 3,9 3,8 81 44 114 62 NNW 0,4 0,0
14.06.2018 04:00:00 4,3 3,7 82 44 111 60 N 10 0,0
14.06.2018 03:00:00 4,5 3,9 88 48 116 62 N 10 0,0
14.06.2018 02:00:00 5,0 4,1 87 47 115 62 N 15 0,0
14.06.2018 01:00:00 5,1 3,9 61 33 99 53 N 18 0,0
14.06.2018 00:00:00 5,8 4,0 71 38 109 59 N 20 0,0
13.06.2018 23:00:00 6,4 4,9 70 38 106 58 N 20 0,0
13.06.2018 22:00:00 6,9 5,5 68 37 109 59 N 20 0,0
13.06.2018 21:00:00 7,8 4,4 77 42 117 63 N 20 0,0
13.06.2018 20:00:00 8,5 3,7 85 46 116 62 N 20 0,0

tt = Température de l'air
td = dewpoint
ff = Vitesse du vent
fx = gusts
dd = Direction du vent
vv = visibility
rr = Quantités de précipitations

stations d'obs. à proximité